Date,TemperatureHighF,TemperatureAvgF,TemperatureLowF,DewpointHighF,DewpointAvgF,DewpointLowF,HumidityHigh,HumidityAvg,HumidityLow,PressureMaxIn,PressureMinIn,WindSpeedMaxMPH,WindSpeedAvgMPH,GustSpeedMaxMPH,PrecipitationSumIn
2013-1-20,37.6,37.3,36.9,38.0,36.6,36.0,98,97,96,30.24,30.23,1,0,1,0.00
2013-1-21,38.1,35.0,32.5,37.0,34.5,32.0,100,97,93,30.24,30.10,2,0,3,0.00
2013-1-22,41.0,35.6,32.0,39.0,34.9,32.0,100,96,89,30.10,29.87,4,0,4,0.00
2013-1-23,42.4,40.9,38.6,42.0,38.5,33.0,99,91,75,30.10,29.81,6,0,6,0.27
2013-1-24,45.1,42.2,40.5,42.0,39.8,37.0,100,91,76,30.17,30.02,5,0,5,0.11
2013-1-25,51.0,45.6,41.9,47.0,43.1,39.0,100,91,77,30.03,29.89,7,0,7,0.05
2013-1-26,44.2,42.2,40.1,42.0,39.9,38.0,99,92,86,30.00,29.84,7,1,7,0.26
2013-1-27,42.0,41.0,40.1,40.0,38.9,37.0,97,91,88,30.02,29.95,7,1,7,0.02
2013-1-28,41.8,40.4,38.3,42.0,40.1,38.0,100,98,95,30.06,29.97,4,0,4,0.27
2013-1-29,47.0,44.4,41.5,47.0,44.1,42.0,100,99,95,30.31,30.05,7,0,9,0.40
2013-1-30,47.9,46.3,44.0,48.0,46.4,44.0,100,100,100,30.35,30.28,4,0,4,0.20
2013-1-31,48.9,46.7,45.5,47.0,46.2,45.0,100,98,89,30.37,30.27,8,1,9,0.09
2013-2-1,51.0,45.5,39.9,50.0,45.0,40.0,100,98,89,30.38,30.30,3,0,3,0.01
2013-2-2,43.3,41.1,39.2,43.0,40.7,39.0,100,98,92,30.36,30.23,3,0,4,0.00
2013-2-3,48.1,44.1,39.6,45.0,42.8,40.0,100,96,86,30.27,30.18,5,0,6,0.07
2013-2-4,50.9,46.2,44.0,47.5,43.5,42.0,98,91,82,30.18,29.86,4,0,4,0.00
2013-2-5,50.1,45.5,43.7,44.0,42.8,41.0,97,91,78,29.90,29.81,9,1,9,0.09
2013-2-6,48.7,44.7,43.5,43.0,41.6,40.0,95,89,75,30.02,29.91,7,2,8,0.01
2013-2-7,47.3,41.0,37.9,42.0,38.6,37.0,98,91,76,30.16,30.02,2,0,2,0.00
2013-2-8,45.4,40.3,37.5,43.0,38.9,37.0,99,94,87,30.28,30.16,3,0,3,0.00
2013-2-10,45.5,37.5,35.0,43.0,37.3,35.0,100,99,90,30.35,30.25,795,0,3,0.00
2013-2-24,60.7,46.6,37.0,62.0,35.9,18.0,75,65,46,30.29,29.93,10,2,10,0.01
2013-2-25,55.2,44.4,39.2,43.0,37.2,32.0,95,77,46,30.28,29.85,11,2,11,0.12
2013-2-26,47.1,43.0,36.8,38.0,35.4,32.0,90,74,57,30.33,30.17,7,1,8,0.02
2013-2-27,48.0,43.4,40.4,44.0,41.2,37.0,100,92,77,30.29,30.18,6,0,6,0.18
2013-2-28,52.1,46.9,41.8,51.0,46.5,42.0,100,99,95,30.31,30.17,8,1,8,0.25
2013-3-1,56.8,52.9,50.1,52.0,50.6,49.0,100,92,82,30.34,30.26,10,2,11,0.17
2013-3-2,57.6,50.0,38.2,50.0,45.9,38.0,98,87,74,30.26,30.06,9,1,9,0.17
2013-3-3,53.9,41.2,35.0,49.0,38.3,35.0,100,90,69,30.29,30.18,4,0,4,0.00
2013-3-4,54.7,41.1,30.2,47.5,35.3,29.0,100,81,50,30.28,29.91,3,0,3,0.00
2013-3-5,49.2,43.6,37.9,43.0,37.4,29.0,93,78,69,29.91,29.71,2,0,2,0.00
2013-3-6,43.8,42.2,40.6,43.0,41.2,40.0,100,96,88,29.88,29.57,7,0,7,0.54
2013-3-7,53.4,44.8,39.3,49.0,42.9,39.0,100,93,74,30.08,29.88,5,0,6,0.25
2013-3-8,55.2,43.3,36.4,50.5,40.6,36.0,100,90,69,30.23,30.06,4,0,4,0.00
2013-3-9,58.0,43.7,34.4,51.0,40.2,35.0,100,88,56,30.48,30.23,4,0,4,0.00
2013-3-10,49.3,43.4,37.9,45.0,41.2,37.0,98,92,78,30.48,30.41,3,0,3,0.01
2013-3-11,51.9,46.8,41.2,47.5,44.5,40.0,100,92,76,30.43,30.14,4,0,5,0.02
2013-3-12,55.4,51.9,48.7,52.0,49.6,47.5,100,92,77,30.15,30.05,12,2,12,0.09
2013-3-13,52.4,51.4,50.6,51.0,50.1,49.0,98,95,91,30.19,30.08,9,1,9,0.16
2013-3-14,53.7,51.4,49.0,50.5,48.2,46.0,99,89,76,30.14,30.02,6,1,6,0.01
2013-3-15,60.5,53.2,49.2,53.5,49.8,47.0,99,88,74,30.20,30.13,7,1,9,0.01
2013-3-16,52.6,47.9,40.2,47.5,43.3,36.0,91,84,67,30.13,29.88,10,2,12,0.00
2013-3-17,52.9,42.9,39.3,43.0,38.0,35.0,94,83,61,30.18,29.96,8,1,8,0.02
2013-3-18,56.9,45.5,38.5,50.5,39.7,35.0,91,80,58,30.23,30.09,11,1,11,0.00
2013-3-19,55.1,42.8,35.7,49.0,39.1,33.0,100,87,56,30.22,29.58,7,0,7,0.43
2013-3-20,52.2,47.1,40.2,50.5,42.8,33.0,100,86,66,30.00,29.36,12,2,12,0.68
2013-3-21,51.1,41.3,36.5,45.0,37.3,33.0,95,85,69,30.20,30.00,6,1,6,0.00
2013-3-22,50.9,39.9,34.1,46.0,36.1,31.0,97,87,60,30.36,30.20,4,0,4,0.03
2013-3-23,55.4,42.0,33.9,47.5,35.7,31.0,92,79,51,30.39,30.29,4,0,5,0.00
2013-3-24,54.6,41.9,31.7,45.0,35.6,31.0,96,79,56,30.29,30.11,2,0,2,0.00
2013-3-25,63.9,47.8,34.7,50.0,37.4,29.0,83,68,45,30.12,29.92,3,0,3,0.00
2013-3-26,60.9,50.7,44.6,53.5,43.0,37.0,85,75,57,30.02,29.95,3,0,3,0.00
2013-3-27,55.9,48.4,44.1,50.0,44.6,40.0,99,87,74,29.99,29.93,2,0,2,0.03
2013-3-28,64.3,51.6,43.1,57.5,48.2,42.0,100,89,58,30.14,29.98,3,0,3,0.02
2013-3-29,66.6,52.8,44.4,58.0,48.1,43.0,99,85,61,30.24,30.14,3,0,3,0.00
2013-3-30,65.0,52.2,41.9,57.5,47.2,41.0,100,84,64,30.26,30.07,4,0,4,0.00
2013-3-31,69.3,55.5,43.5,60.5,47.3,41.0,91,75,58,30.07,29.90,3,0,3,0.00
2013-4-1,61.4,52.7,47.3,52.0,47.4,43.0,94,83,63,30.16,29.96,5,1,5,0.00
2013-4-2,58.0,52.1,49.1,50.5,46.7,45.0,91,81,71,30.20,30.14,5,1,6,0.00
2013-4-3,62.2,52.7,44.9,55.0,48.2,44.0,98,86,65,30.19,29.95,2,0,3,0.00
2013-4-4,55.4,51.5,48.6,54.5,49.8,46.0,100,93,83,29.95,29.64,8,0,9,0.43
2013-4-5,56.7,52.0,48.0,51.0,49.6,47.5,100,91,78,29.87,29.72,10,2,10,0.69
2013-4-6,53.6,48.0,45.1,49.0,45.4,42.0,100,91,80,29.92,29.69,9,2,9,0.50
2013-4-7,46.6,43.7,40.3,46.0,43.2,40.0,100,98,93,29.89,29.50,6,0,6,0.47
2013-4-8,59.1,49.0,42.6,55.0,45.8,42.0,100,89,68,30.26,29.89,4,0,5,0.05
2013-4-9,54.9,50.3,44.6,47.5,43.1,41.0,93,78,62,30.35,30.18,6,1,8,0.00
2013-4-10,60.7,53.2,49.1,55.0,47.6,43.0,98,82,67,30.25,29.94,11,1,12,0.26
2013-4-11,56.4,48.5,45.1,47.5,42.5,39.0,97,81,60,30.30,30.19,6,0,6,0.04
2013-4-12,46.3,43.9,40.8,45.0,40.7,38.0,99,89,74,30.19,29.67,11,1,11,0.12
2013-4-13,49.9,42.4,37.5,45.0,39.9,36.0,100,91,74,30.00,29.74,10,1,12,0.40
2013-4-14,56.9,45.5,38.0,49.0,40.8,35.0,100,85,54,30.01,29.92,4,0,4,0.04
2013-4-15,58.0,46.4,38.8,48.0,41.2,38.0,100,83,56,30.18,29.94,4,0,4,0.00
2013-4-16,60.9,47.1,37.2,50.0,40.6,33.0,100,80,47,30.39,30.18,7,0,7,0.00
2013-4-17,61.7,49.0,38.6,47.5,40.1,36.0,93,73,43,30.45,30.39,8,0,8,0.00
2013-4-18,51.2,47.6,44.1,49.0,43.3,39.0,96,85,74,30.45,30.19,8,1,9,0.14
2013-4-19,53.6,50.8,48.3,53.0,49.8,47.5,100,97,93,30.19,30.06,9,1,9,0.40
2013-4-20,57.1,49.9,46.8,51.0,47.3,44.0,99,91,71,30.28,30.19,6,1,6,0.11
2013-4-21,56.9,47.4,43.1,50.0,43.8,38.0,98,88,69,30.36,30.23,6,0,6,0.03
2013-4-22,60.9,49.1,38.9,50.5,38.0,26.0,99,69,31,30.53,30.36,4,0,5,0.00
2013-4-23,66.2,49.8,36.5,45.0,37.2,29.0,99,65,31,30.42,30.24,3,0,4,0.00
2013-4-24,71.0,49.6,40.0,47.5,40.9,38.0,96,75,40,30.32,30.20,4,0,4,0.00
2013-4-25,70.5,60.0,50.8,47.0,44.1,41.0,84,58,34,30.14,30.05,2,0,2,0.00
2013-4-26,66.1,54.9,45.1,51.0,47.3,43.0,99,77,54,30.26,30.14,5,0,5,0.00
2013-4-27,56.9,53.3,52.7,47.5,43.0,40.0,80,69,60,30.20,30.15,5,0,6,0.00
2013-4-28,60.1,53.8,48.5,51.0,44.0,40.0,90,70,57,30.19,29.94,9,2,9,0.00
2013-4-29,59.9,49.1,43.6,49.0,41.4,36.0,98,76,48,30.16,29.90,6,0,6,0.10
2013-4-30,57.1,46.2,36.9,45.0,36.9,33.0,98,71,45,30.44,30.16,4,0,4,0.02
2013-5-1,65.3,49.7,36.2,47.0,37.3,33.0,98,66,35,30.58,30.44,3,0,3,0.00
2013-5-2,68.0,53.7,42.1,48.0,40.4,36.0,87,62,44,30.55,30.37,4,0,4,0.00
2013-5-3,70.4,57.4,45.4,53.0,45.5,38.0,88,66,46,30.40,30.22,4,0,4,0.00
2013-5-4,74.5,62.7,51.9,53.5,45.8,37.0,79,56,33,30.24,29.99,6,0,6,0.00
2013-5-5,80.1,64.9,49.9,53.0,46.4,40.0,85,54,28,30.00,29.76,4,0,5,0.00
2013-5-6,86.7,65.9,50.7,54.5,49.0,44.0,88,58,28,29.85,29.73,3,0,3,0.00
2013-5-7,71.0,59.4,51.8,55.0,51.2,48.0,91,75,53,30.01,29.82,8,1,8,0.00
2013-5-8,64.7,56.0,51.5,53.5,49.8,48.0,92,80,64,30.15,30.01,5,0,6,0.00
2013-5-9,67.8,55.4,47.8,57.5,50.8,47.5,100,86,55,30.23,30.11,3,0,3,0.00
2013-5-10,76.8,60.1,47.0,62.0,52.1,46.0,100,78,46,30.21,30.10,3,0,3,0.00
2013-5-11,80.6,63.9,53.6,62.5,52.5,45.0,89,69,39,30.18,29.98,6,0,6,0.00
2013-5-12,69.5,62.1,57.9,57.5,55.4,53.0,95,79,62,30.10,30.01,7,1,7,0.06
2013-5-13,63.9,56.5,49.4,56.5,50.8,41.0,93,81,60,30.19,29.93,13,2,13,0.38
2013-5-14,66.1,55.2,47.9,50.5,44.2,40.0,86,68,44,30.23,30.11,4,0,4,0.00
2013-5-15,65.2,53.4,46.2,53.5,46.9,41.0,95,80,46,30.13,30.01,6,0,6,0.02
2013-5-16,70.8,59.3,52.6,57.5,51.8,48.0,97,78,51,30.02,29.87,6,0,6,0.00
2013-5-17,63.4,57.0,52.8,51.0,48.9,45.0,90,75,55,30.06,29.95,8,1,8,0.02
2013-5-18,61.9,55.7,51.5,49.0,47.2,45.0,88,73,59,30.27,30.06,9,1,9,0.00
2013-5-19,63.9,56.8,50.3,53.5,48.9,47.0,87,75,59,30.40,30.27,3,0,3,0.00
2013-5-20,69.0,54.8,45.5,56.5,48.5,44.0,99,80,52,30.36,29.90,4,0,5,0.00
2013-5-21,57.3,49.8,45.7,53.0,46.5,44.0,97,89,69,29.91,29.78,6,1,6,0.27
2013-5-22,54.4,48.6,45.3,47.5,45.4,43.0,97,89,74,29.94,29.85,6,1,6,0.03
2013-5-23,58.4,49.4,44.9,50.5,45.3,43.0,97,86,64,30.02,29.92,10,1,10,0.04
2013-5-24,64.1,53.8,45.8,54.5,46.7,44.0,99,79,51,30.05,29.97,7,1,7,0.00
2013-5-25,63.6,55.5,50.8,50.5,47.6,44.0,91,75,50,30.05,29.97,7,1,7,0.00
2013-5-26,64.2,55.2,49.5,56.5,50.8,47.5,99,86,67,29.99,29.95,7,1,7,0.06
2013-5-27,58.7,55.5,51.5,57.5,53.4,49.0,98,92,83,29.97,29.71,6,0,8,0.28
2013-5-28,62.2,56.1,52.7,54.0,50.1,47.5,93,81,67,29.89,29.77,8,1,8,0.01
2013-5-29,62.0,54.1,49.6,52.0,49.6,47.5,99,86,66,29.97,29.69,8,0,8,0.07
2013-5-30,62.6,55.3,50.3,50.5,47.4,46.0,87,75,59,30.25,29.97,9,2,9,0.00
2013-5-31,67.3,57.4,51.2,56.0,47.7,43.0,90,72,46,30.34,30.25,4,0,4,0.00
2013-6-1,72.5,59.7,50.9,54.5,48.5,46.0,87,68,43,30.25,30.06,5,0,5,0.00
2013-6-2,69.3,60.8,52.4,57.0,50.6,46.0,92,71,52,30.10,30.04,4,0,4,0.00
2013-6-3,70.3,59.4,51.8,57.0,51.8,49.0,95,77,54,30.13,30.05,4,0,4,0.00
2013-6-4,77.1,63.0,49.8,60.5,51.7,47.0,98,70,46,30.14,30.01,5,0,5,0.00
2013-6-5,77.5,64.2,52.7,60.5,53.4,47.0,86,69,52,30.09,30.02,4,0,4,0.00
2013-6-6,79.4,64.0,51.6,60.0,51.3,45.0,97,66,38,30.06,29.99,4,0,4,0.00
2013-6-7,66.7,60.7,55.8,55.0,49.9,44.0,81,68,50,30.15,30.02,6,0,6,0.00
2013-6-8,66.3,58.8,53.7,52.0,49.0,47.0,78,70,56,30.19,30.10,4,0,5,0.00
2013-6-9,66.0,57.2,51.5,54.5,48.2,45.0,86,72,55,30.13,30.03,4,0,4,0.00
2013-6-10,69.3,58.5,46.9,57.0,47.9,43.0,91,69,47,30.04,29.88,4,0,4,0.00
2013-6-11,64.9,56.6,52.1,56.0,47.4,45.0,93,72,51,30.10,29.94,8,2,10,0.08
2013-6-12,68.4,58.5,51.9,52.0,47.9,44.0,85,69,44,30.15,30.10,8,1,8,0.00
2013-6-13,67.7,59.0,52.6,54.5,49.8,47.0,87,73,52,30.22,30.14,4,0,4,0.00
2013-6-14,65.2,58.4,54.1,50.5,48.7,47.0,86,71,56,30.24,30.06,6,1,6,0.00
2013-6-15,72.2,60.3,48.4,57.5,51.7,47.5,99,75,48,30.06,29.91,5,0,5,0.00
2013-6-16,74.5,62.6,53.2,61.0,53.6,50.0,94,74,54,30.09,29.99,6,1,6,0.00
2013-6-17,75.2,64.3,55.9,60.0,52.3,47.5,87,67,38,30.10,29.88,6,1,7,0.00
2013-6-18,74.1,63.0,55.6,54.5,50.4,43.0,91,66,36,29.98,29.86,8,1,8,0.00
2013-6-19,67.7,59.8,54.4,55.0,50.9,49.0,88,73,58,30.01,29.92,6,1,6,0.00
2013-6-20,60.4,56.2,52.7,55.0,52.0,49.0,99,86,72,30.11,29.95,6,0,6,0.26
2013-6-21,67.6,59.3,52.7,60.0,53.1,49.0,100,82,56,30.17,30.10,4,0,4,0.02
2013-6-22,76.8,63.8,51.0,62.5,53.2,50.0,100,72,41,30.13,29.85,4,0,4,0.00
2013-6-23,69.2,62.9,57.5,62.0,56.7,51.0,98,80,69,29.85,29.60,2,0,2,0.14
2013-6-24,67.3,61.5,55.9,60.0,55.8,53.0,99,83,62,29.70,29.58,9,1,9,0.07
2013-6-25,73.6,62.2,56.4,65.5,56.9,53.0,100,85,50,29.86,29.68,8,0,8,0.45
2013-6-26,71.3,62.9,56.7,64.5,58.3,56.0,100,85,65,30.08,29.85,5,0,6,0.04
2013-6-27,70.6,64.4,59.7,65.0,61.0,56.0,99,89,76,30.20,30.05,4,0,4,0.06
2013-6-28,87.4,70.3,58.4,71.0,62.4,57.5,99,78,44,30.20,30.02,4,0,4,0.00
2013-6-29,83.2,70.9,62.6,69.3,62.0,57.0,95,75,54,30.10,29.98,5,0,5,0.00
2013-6-30,92.0,72.9,57.9,81.7,63.3,55.0,93,73,52,30.02,29.83,4,0,4,0.08
2013-7-1,86.6,72.6,61.3,76.3,63.6,59.0,93,74,55,30.01,29.90,3,0,3,0.00
2013-7-2,80.1,68.9,59.4,69.7,58.1,52.0,91,70,44,30.11,30.02,4,0,4,0.00
2013-7-3,77.7,66.6,59.7,67.0,52.6,47.0,79,61,43,30.16,30.04,4,0,4,0.00
2013-7-4,70.2,62.6,57.5,58.0,53.1,50.0,85,71,54,30.14,30.02,5,0,6,0.00
2013-7-5,74.3,63.8,54.3,65.0,55.4,52.0,96,75,56,30.04,29.94,5,1,5,0.00
2013-7-6,78.8,65.6,54.8,66.0,56.2,52.0,98,74,44,29.99,29.86,5,0,5,0.00
2013-7-7,74.4,64.4,56.6,63.0,57.3,53.5,95,79,60,29.96,29.87,5,1,5,0.00
2013-7-8,76.5,64.9,55.9,65.0,56.8,53.0,90,76,53,30.10,29.95,6,1,7,0.00
2013-7-9,82.3,67.4,55.7,69.0,57.0,51.0,96,72,46,30.12,29.98,5,0,5,0.00
2013-7-10,71.2,61.9,56.4,61.0,53.8,50.0,91,75,61,30.08,29.95,6,1,6,0.00
2013-7-11,70.9,60.9,55.7,62.5,50.2,47.5,82,69,49,30.09,30.00,4,0,5,0.00
2013-7-12,66.7,58.7,52.8,61.5,50.2,47.0,87,74,64,30.11,30.02,4,0,4,0.00
2013-7-13,76.8,62.2,49.2,66.0,51.0,46.0,93,69,41,30.21,30.10,5,0,5,0.00
2013-7-14,81.3,64.7,50.7,65.0,51.1,44.0,95,64,36,30.14,29.98,4,0,5,0.00
2013-7-15,77.7,66.8,53.6,62.5,50.6,45.0,89,59,38,30.06,29.88,7,0,7,0.00
2013-7-16,84.1,70.6,57.3,64.0,52.2,46.0,72,53,39,29.90,29.78,6,0,6,0.00
2013-7-17,70.5,65.0,60.3,57.0,55.2,54.0,85,72,60,30.19,29.87,8,1,8,0.01
2013-7-18,75.3,65.0,57.3,65.0,56.1,53.0,89,75,54,30.23,30.11,4,0,4,0.00
2013-7-19,78.4,64.4,54.3,66.0,57.0,52.0,97,79,54,30.18,30.03,3,0,3,0.00
2013-7-20,74.0,61.8,54.2,64.0,56.4,53.0,98,84,61,30.10,29.96,4,0,4,0.00
2013-7-21,74.6,62.5,54.2,64.0,56.7,53.0,98,84,61,30.00,29.89,5,0,5,0.00
2013-7-22,76.6,64.6,55.5,66.0,57.4,54.0,98,80,52,30.07,29.94,4,0,4,0.00
2013-7-23,82.0,66.1,54.1,69.0,55.8,48.0,97,73,35,30.08,29.96,5,0,5,0.00
2013-7-24,83.4,67.3,54.2,66.0,55.0,47.0,96,69,34,30.06,29.98,3,0,3,0.00
2013-7-25,82.3,65.8,52.8,63.0,55.0,50.0,96,71,40,30.11,30.03,3,0,3,0.00
2013-7-26,85.2,67.3,53.3,64.0,53.0,46.0,94,64,34,30.16,30.06,4,0,4,0.00
2013-7-27,77.4,64.2,54.5,60.0,52.7,47.0,90,69,39,30.18,29.98,5,0,5,0.00
2013-7-28,67.0,59.7,53.6,56.0,53.0,51.0,93,79,65,30.04,29.96,5,1,7,0.00
2013-7-29,75.3,63.7,55.4,64.0,54.6,51.0,88,74,50,30.02,29.94,4,0,4,0.00
2013-7-30,76.3,63.7,55.3,62.0,55.9,53.0,94,78,52,30.14,30.01,6,1,6,0.00
2013-7-31,69.7,61.1,55.4,62.0,56.7,53.0,99,87,70,30.14,29.99,4,0,4,0.00
2013-8-1,67.9,60.8,55.4,57.0,54.7,53.0,93,82,68,30.07,30.02,8,1,8,0.00
2013-8-2,60.7,59.4,58.1,58.0,56.2,54.0,98,91,82,30.14,30.06,7,0,7,0.13
2013-8-3,75.6,64.2,57.9,70.0,58.4,55.0,99,84,60,30.14,30.05,4,0,4,0.00
2013-8-4,81.0,66.0,54.3,70.0,58.8,53.0,99,80,51,30.07,29.93,4,0,4,0.00
2013-8-5,84.0,67.7,55.5,70.0,59.2,54.0,99,77,44,30.02,29.91,3,0,3,0.00
2013-8-6,84.5,66.5,53.6,68.0,56.6,52.0,96,74,41,30.02,29.90,3,0,3,0.00
2013-8-7,84.7,66.7,54.0,68.0,56.9,53.0,98,74,39,30.02,29.93,4,0,4,0.00
2013-8-8,81.3,66.7,57.5,66.0,57.7,54.0,94,75,48,30.05,29.93,4,0,4,0.00
2013-8-9,79.4,66.7,55.5,64.0,57.0,54.0,95,74,46,29.97,29.83,3,0,4,0.00
2013-8-10,76.9,65.4,58.1,66.0,59.7,57.0,99,84,61,30.02,29.90,5,0,5,0.12
2013-8-11,75.3,64.0,57.3,66.0,55.9,53.0,89,76,52,30.08,29.98,5,0,5,0.00
2013-8-12,78.0,65.6,57.6,66.0,56.5,54.0,91,75,47,30.09,29.99,4,0,5,0.00
2013-8-13,82.2,66.6,56.7,66.0,56.7,53.0,93,73,42,30.11,29.93,5,0,5,0.00
2013-8-14,78.6,66.0,55.8,62.0,57.1,53.0,94,76,46,29.97,29.89,6,0,6,0.01
2013-8-15,69.6,65.1,59.9,65.0,62.3,59.0,97,91,82,30.00,29.92,3,0,4,0.01
2013-8-16,83.5,69.2,58.4,71.0,60.5,50.0,100,78,33,30.01,29.93,5,0,5,0.00
2013-8-17,77.8,68.1,61.0,66.0,57.9,54.0,85,71,55,30.08,30.01,7,1,7,0.00
2013-8-18,78.3,65.9,58.6,66.0,56.7,52.0,90,74,53,30.14,30.07,6,0,6,0.00
2013-8-19,80.3,66.6,58.6,65.0,55.4,51.0,85,69,45,30.12,30.06,5,0,5,0.00
2013-8-20,76.0,65.6,58.6,62.0,52.6,49.0,80,64,42,30.18,30.07,5,0,5,0.00
2013-8-21,78.5,65.4,51.9,63.0,53.1,48.0,89,66,43,30.11,29.93,5,0,5,0.00
2013-8-22,82.8,68.0,54.5,65.0,55.2,51.0,90,66,41,29.95,29.79,4,0,4,0.00
2013-8-23,75.9,66.7,60.9,61.0,56.2,54.0,86,71,53,29.89,29.83,8,2,8,0.00
2013-8-24,75.8,65.0,58.4,64.0,56.1,53.0,86,75,53,29.93,29.85,5,0,5,0.00
2013-8-25,73.7,62.7,53.6,64.0,54.5,51.0,94,76,57,29.95,29.86,4,0,4,0.00
2013-8-26,75.5,64.9,59.4,61.0,56.0,52.0,87,75,47,29.96,29.85,10,0,10,0.02
2013-8-27,78.8,67.9,61.1,68.0,58.2,52.0,88,73,54,29.96,29.79,4,0,4,0.00
2013-8-28,79.1,68.1,58.8,68.0,60.7,55.0,100,80,55,29.90,29.84,4,0,4,0.18
2013-8-29,72.8,66.1,62.4,67.0,63.7,59.0,100,93,75,30.02,29.85,6,0,7,0.34
2013-8-30,79.8,68.0,60.8,67.0,58.6,53.0,93,74,43,30.15,30.02,6,1,6,0.00
2013-8-31,78.0,64.5,53.8,66.0,56.9,53.0,100,79,49,30.10,29.84,4,0,4,0.00
2013-9-1,81.9,66.9,56.7,68.0,58.7,55.0,98,78,47,29.90,29.78,5,0,5,0.00
2013-9-2,82.3,68.8,59.0,69.0,58.2,54.0,92,72,43,29.95,29.85,5,0,5,0.00
2013-9-3,73.0,64.4,60.3,66.0,60.5,57.0,100,89,70,30.04,29.94,3,0,3,0.11
2013-9-4,71.5,63.3,57.5,66.0,59.2,57.0,99,88,71,30.06,30.00,3,0,3,0.00
2013-9-5,67.7,61.4,58.1,63.0,58.7,57.0,100,92,79,30.06,29.93,4,0,4,0.15
2013-9-6,72.9,63.5,60.1,69.0,61.2,59.0,100,94,73,30.12,29.94,6,0,6,1.46
2013-9-7,74.4,64.2,58.8,66.0,60.1,57.0,97,88,64,30.11,30.02,2,0,4,0.00
2013-9-8,80.6,64.8,55.0,71.0,59.5,55.0,100,85,50,30.12,30.02,4,0,4,0.00
2013-9-9,77.9,63.7,56.6,68.0,58.7,56.0,99,86,52,30.09,29.98,4,0,4,0.00
2013-9-10,77.3,64.2,53.6,69.0,59.0,53.0,100,85,56,30.01,29.88,4,0,4,0.00
2013-9-11,88.8,70.0,56.8,74.0,61.0,56.0,100,77,43,29.95,29.85,3,0,3,0.00
2013-9-12,78.7,65.2,59.0,69.0,59.9,57.0,99,85,58,30.01,29.90,4,0,4,0.00
2013-9-13,65.3,61.9,57.9,61.0,59.4,57.0,100,93,83,29.98,29.88,3,0,3,0.00
2013-9-14,68.1,62.0,57.4,61.0,58.4,56.0,97,89,76,29.89,29.74,3,0,3,0.00
2013-9-15,64.5,59.7,56.4,62.0,58.4,56.0,100,96,89,29.83,29.72,7,0,7,0.18
2013-9-16,68.3,61.6,58.4,60.0,57.4,54.0,95,87,74,29.95,29.81,10,1,10,0.01
2013-9-17,62.2,58.6,54.7,55.0,53.5,52.0,93,84,72,29.95,29.88,1,0,2,0.00
2013-9-18,70.8,59.4,53.1,62.0,53.4,50.0,98,83,53,30.08,29.95,6,0,6,0.00
2013-9-19,78.9,61.0,48.3,65.0,52.4,47.0,100,77,39,30.06,29.77,2,0,2,0.00
2013-9-20,75.5,62.3,55.3,62.0,53.5,48.0,98,75,53,29.77,29.59,8,1,8,0.08
2013-9-21,70.7,61.0,55.4,64.0,54.9,53.0,96,82,56,29.74,29.65,8,1,8,0.01
2013-9-22,61.4,57.9,54.6,56.0,53.3,49.0,97,85,69,29.75,29.58,10,2,10,0.27
2013-9-23,62.2,56.4,53.0,56.0,52.5,48.0,97,87,76,29.98,29.74,10,1,10,0.27
2013-9-24,65.6,55.4,50.3,61.0,50.3,47.0,98,85,60,29.97,29.84,6,1,6,0.01
2013-9-25,62.9,52.7,47.4,57.0,49.1,46.0,99,88,61,30.04,29.87,5,0,5,0.03
2013-9-26,63.5,52.5,44.8,57.0,48.6,45.0,100,88,62,30.14,30.04,4,0,3,0.00
2013-9-27,57.1,54.6,51.5,53.0,50.8,48.0,96,88,82,30.13,29.85,9,1,9,0.07
2013-9-28,59.9,55.6,52.3,58.0,54.2,50.0,100,96,89,29.86,29.34,10,2,10,1.49
2013-9-29,55.4,53.4,51.8,53.0,50.2,48.0,98,90,82,29.57,29.17,15,2,15,0.65
2013-9-30,58.7,53.0,50.0,53.0,48.7,45.0,95,86,73,29.93,29.43,13,2,13,0.09
2013-10-1,59.0,52.2,48.0,54.0,47.6,45.0,99,85,65,30.12,29.92,8,2,10,0.14
2013-10-2,55.4,50.8,48.6,50.0,48.0,47.0,100,91,80,30.19,30.06,9,1,9,0.26
2013-10-3,59.8,51.0,45.1,56.0,48.1,44.0,100,90,69,30.46,30.19,2,0,3,0.00
2013-10-4,64.2,51.7,43.4,61.0,48.4,43.0,100,90,59,30.49,30.35,3,0,3,0.00
2013-10-5,69.7,53.8,44.6,62.0,49.0,45.0,100,86,51,30.37,30.14,2,0,2,0.00
2013-10-6,73.6,57.3,45.5,66.0,49.7,44.0,100,79,42,30.14,29.88,6,0,6,0.02
2013-10-7,62.4,55.4,52.7,53.0,49.7,46.0,95,83,59,30.02,29.90,10,2,11,0.07
2013-10-8,58.5,50.9,44.1,53.0,46.8,43.0,97,87,67,30.09,29.97,6,0,6,0.06
2013-10-9,60.8,48.6,41.7,53.0,45.2,41.0,100,88,68,30.15,29.96,3,0,3,0.00
2013-10-10,61.1,51.7,45.8,57.0,48.2,44.0,97,88,71,30.09,29.95,4,0,4,0.01
2013-10-11,54.5,51.0,48.5,51.0,49.2,47.0,100,94,81,30.16,30.08,3,0,3,0.07
2013-10-12,59.0,50.8,44.6,57.0,48.6,44.0,100,93,73,30.23,30.08,4,0,6,0.03
2013-10-13,61.6,49.4,42.5,56.0,46.3,43.0,100,90,59,30.37,30.22,4,0,4,0.00
2013-10-14,62.3,48.2,40.2,57.0,45.2,40.0,100,91,59,30.45,30.37,3,0,3,0.00
2013-10-15,60.6,49.0,42.4,54.0,46.6,42.0,100,92,71,30.40,30.19,3,0,3,0.00
2013-10-16,55.4,50.1,44.8,50.0,47.8,45.0,100,92,80,30.22,30.16,3,0,3,0.00
2013-10-17,61.6,51.4,45.5,57.0,48.2,45.0,99,90,67,30.29,30.21,3,0,3,0.00
2013-10-18,56.1,47.4,43.7,53.0,46.3,44.0,100,96,78,30.26,30.16,3,0,3,0.00
2013-10-19,49.5,47.5,45.8,48.0,46.7,45.0,100,97,90,30.21,30.15,2,0,1,0.00
2013-10-20,50.1,48.1,46.8,48.0,46.7,46.0,99,96,90,30.22,30.16,2,0,2,0.00
2013-10-21,51.7,48.8,46.9,49.0,47.6,46.0,100,96,89,30.19,30.11,2,0,2,0.00
2013-10-22,54.9,48.6,45.6,50.0,47.4,45.0,100,97,85,30.14,30.05,3,0,3,0.00
2013-10-23,57.7,47.9,43.8,54.0,46.9,43.0,100,97,80,30.07,29.99,2,0,2,0.00
2013-10-24,49.4,47.3,43.7,49.0,46.8,43.0,100,98,93,30.14,30.03,2,0,2,0.00
2013-10-25,53.6,49.1,44.9,50.0,48.1,45.0,100,97,88,30.33,30.14,3,0,3,0.00
2013-10-26,54.8,50.6,46.2,50.0,47.3,46.0,100,90,80,30.35,30.20,3,0,3,0.00
2013-10-27,56.9,51.0,46.6,53.0,47.2,44.0,100,87,72,30.21,29.91,6,0,6,0.14
2013-10-28,58.6,51.4,44.5,47.0,39.8,33.0,94,66,49,29.97,29.90,7,0,7,0.00
2013-10-29,58.9,45.1,36.0,50.0,39.1,35.0,99,81,51,30.05,29.95,2,0,3,0.00
2013-10-30,55.7,48.2,40.2,47.0,42.2,39.0,96,80,67,30.14,30.03,8,1,8,0.01
2013-10-31,54.8,51.7,49.7,51.0,48.3,43.0,96,89,74,30.27,30.10,10,1,10,0.00
2013-11-1,59.9,54.5,51.9,53.0,50.3,47.0,97,87,72,30.29,29.85,4,0,4,0.00
2013-11-2,53.6,50.4,44.0,52.0,45.7,39.0,100,85,68,29.89,29.49,15,2,15,0.34
2013-11-3,55.4,45.0,41.0,48.0,41.4,38.0,98,88,69,30.12,29.89,6,0,6,0.02
2013-11-4,50.8,43.1,37.4,45.0,40.1,37.0,100,90,67,30.20,30.06,3,0,3,0.01
2013-11-5,51.0,47.1,43.6,49.0,45.9,42.0,100,96,89,30.27,30.02,5,0,5,0.01
2013-11-6,52.7,48.0,43.3,48.0,45.7,42.0,100,92,81,30.33,30.04,5,0,5,0.00
2013-11-7,50.9,49.2,48.2,50.0,47.9,46.0,100,95,84,30.04,29.72,11,2,11,0.02
2013-11-8,56.8,50.0,45.5,48.0,45.4,43.0,94,84,70,30.17,29.98,7,1,7,0.01
2013-11-9,50.8,45.6,39.8,46.0,43.6,40.0,100,93,81,30.16,30.09,0,0,0,0.02
2013-11-10,49.7,47.2,44.9,47.0,45.7,44.0,100,94,88,30.17,30.10,3,0,3,0.01
2013-11-11,58.5,48.0,43.2,53.0,45.7,42.0,100,92,75,30.18,30.01,2,0,2,0.02
2013-11-12,59.2,52.6,45.9,54.0,50.3,45.0,100,92,78,30.37,30.03,8,1,8,0.01
2013-11-13,55.3,53.0,49.5,51.0,49.4,47.0,94,89,82,30.45,30.32,9,1,9,0.01
2013-11-14,49.5,47.2,43.3,49.0,46.3,43.0,100,97,91,30.32,30.06,3,0,3,0.02
2013-11-15,49.9,46.2,43.9,48.0,44.1,41.0,100,93,87,30.07,29.33,14,2,14,0.01
2013-11-16,49.1,44.8,39.8,46.0,40.3,38.0,100,85,70,29.79,29.35,7,1,8,0.01
2013-11-17,53.2,48.1,43.8,48.0,44.8,39.0,92,88,81,29.91,29.78,11,2,11,0.00
2013-11-18,52.5,50.0,48.3,53.0,49.0,46.0,100,97,88,29.91,29.56,10,1,10,0.01
2013-11-19,53.1,44.5,38.6,52.0,40.2,28.0,99,85,59,30.09,29.56,8,0,9,0.01
2013-11-20,44.9,37.9,33.7,35.0,30.3,28.0,84,74,61,30.52,30.08,4,0,4,0.00
2013-11-21,46.1,35.5,30.2,36.0,29.6,26.0,89,78,62,30.67,30.51,3,0,3,0.00
2013-11-22,46.2,36.2,29.5,36.0,31.1,26.0,94,81,67,30.66,30.46,2,0,3,0.01
2013-11-23,49.0,38.4,31.0,41.0,34.7,28.0,97,87,68,30.45,30.21,3,0,3,0.00
2013-11-24,51.2,39.6,33.6,45.0,37.9,33.0,100,93,76,30.27,30.17,2,0,2,0.01
2013-11-25,54.2,40.5,34.6,46.0,39.2,35.0,100,95,64,30.33,30.26,3,0,3,0.00
2013-11-26,54.7,44.1,36.5,46.0,40.4,37.0,100,88,69,30.28,30.11,4,0,4,0.00
2013-11-27,57.5,45.5,39.2,49.0,41.9,37.0,98,87,72,30.11,29.98,1,0,2,0.01
2013-11-28,45.7,39.9,35.8,45.0,39.7,36.0,100,99,94,30.19,30.03,2,0,2,0.00
2013-11-29,47.9,44.5,39.8,47.0,43.5,40.0,100,97,89,30.33,30.18,6,0,6,0.01
2013-11-30,50.9,48.9,46.0,49.0,45.9,44.0,97,90,83,30.34,30.10,9,2,9,0.00
2013-12-1,54.0,51.4,44.0,52.0,48.3,40.0,99,90,84,30.10,29.75,8,2,12,0.00
2013-12-2,47.1,40.3,36.1,40.0,36.2,33.0,99,85,62,30.07,29.82,7,0,7,0.00
2013-12-3,40.2,35.1,29.2,33.0,28.3,24.0,92,75,62,30.32,30.07,7,0,7,0.00
2013-12-4,40.1,30.5,25.6,33.0,26.4,24.0,98,84,70,30.36,30.29,2,0,2,0.29
2013-12-5,33.8,28.9,24.9,28.0,23.4,16.0,97,79,59,30.33,30.19,3,0,3,0.25
2013-12-6,35.1,28.2,24.0,21.0,13.9,11.0,61,52,43,30.24,30.14,4,0,4,0.00
2013-12-7,31.2,24.3,20.3,16.0,11.5,8.0,74,55,46,30.43,30.23,4,0,4,0.00
2013-12-8,35.1,26.2,20.2,24.0,18.9,14.0,82,70,59,30.58,30.42,1,0,3,0.00
2013-12-9,33.8,30.1,23.8,31.0,23.9,18.0,86,76,66,30.59,30.50,3,0,3,0.00
2013-12-10,38.8,35.9,33.4,36.0,32.8,28.0,91,87,81,30.50,30.42,4,0,4,0.26
2013-12-11,39.7,34.3,29.1,37.0,33.2,29.0,100,95,87,30.43,30.17,3,0,3,0.16
2013-12-12,42.2,38.9,33.4,42.0,37.6,33.0,100,94,78,30.18,30.06,8,0,8,0.25
2013-12-13,48.4,45.7,42.1,47.0,45.0,42.0,100,97,92,30.43,30.14,6,1,6,0.00
2013-12-14,48.8,47.2,45.5,46.0,44.3,43.0,94,90,87,30.45,30.33,8,1,8,0.00
2013-12-15,50.7,48.5,46.6,49.0,47.0,44.0,100,96,87,30.47,30.33,10,1,10,0.06
2013-12-16,49.6,44.7,41.0,47.0,44.2,40.0,100,98,89,30.51,30.29,3,0,3,0.00
2013-12-17,44.9,42.4,40.8,44.0,41.6,40.0,100,97,92,30.29,30.12,5,0,5,0.00
2013-12-18,44.7,42.2,37.5,43.0,39.1,35.0,97,88,70,30.17,30.03,5,0,5,0.03
2013-12-19,40.4,36.1,31.2,37.0,30.3,24.0,93,79,70,30.36,30.16,5,0,5,0.00
2013-12-20,43.2,37.8,32.5,43.0,36.8,28.0,100,96,74,30.19,29.72,5,0,5,0.05
2013-12-21,44.4,41.9,40.1,44.0,41.9,40.0,100,100,100,30.18,29.85,2,0,2,0.03
2013-12-22,50.0,47.1,44.4,50.0,47.1,44.0,100,100,97,30.31,30.16,10,0,10,0.26
2013-12-23,54.6,49.0,42.0,50.0,46.6,40.0,99,92,81,30.53,30.14,11,2,11,0.01
2013-12-24,48.1,40.0,35.6,43.0,39.0,36.0,100,96,81,30.63,30.52,2,0,2,0.00
2013-12-25,45.3,36.3,32.5,41.0,35.9,33.0,100,97,82,30.55,30.40,3,0,3,0.00
2013-12-26,44.0,38.5,35.5,41.0,38.0,36.0,100,98,89,30.42,30.21,2,0,2,0.00
2013-12-27,45.8,41.6,37.4,45.0,41.4,37.0,100,99,89,30.39,30.14,6,0,6,0.01
2013-12-28,47.4,43.1,37.9,46.0,42.7,38.0,100,99,93,30.53,30.38,3,0,3,0.00
2013-12-29,44.3,40.0,38.1,42.0,39.6,38.0,100,99,93,30.50,30.35,1,0,1,0.00
2013-12-31,46.3,44.5,40.4,46.0,43.6,40.0,100,97,87,30.40,30.21,4,0,4,0.00
2014-1-1,45.5,42.7,40.1,44.0,42.2,40.0,100,98,93,30.42,30.26,2,0,2,0.00
2014-1-2,51.0,46.4,42.9,47.0,44.4,43.0,100,93,75,30.27,29.91,8,1,8,0.39